sensor_id;sensor_type;location;lat;lon;timestamp;pressure;altitude;pressure_sealevel;temperature;humidity
63535;BME280;55128;50.230;18.944;2023-12-04T00:00:39;99046.19;;;-1.86;78.99
63535;BME280;55128;50.230;18.944;2023-12-04T00:05:42;99047.06;;;-1.82;78.88
63535;BME280;55128;50.230;18.944;2023-12-04T00:10:45;99041.00;;;-1.83;78.78
63535;BME280;55128;50.230;18.944;2023-12-04T00:15:48;99039.31;;;-1.79;78.97
63535;BME280;55128;50.230;18.944;2023-12-04T00:20:49;99041.97;;;-1.74;79.24
63535;BME280;55128;50.230;18.944;2023-12-04T00:25:49;99047.94;;;-1.83;78.54
63535;BME280;55128;50.230;18.944;2023-12-04T00:30:49;99054.91;;;-1.81;79.09
63535;BME280;55128;50.230;18.944;2023-12-04T00:35:50;99052.34;;;-1.78;78.37
63535;BME280;55128;50.230;18.944;2023-12-04T00:40:50;99042.72;;;-1.85;78.57
63535;BME280;55128;50.230;18.944;2023-12-04T00:45:51;99054.88;;;-1.85;78.62
63535;BME280;55128;50.230;18.944;2023-12-04T00:50:51;99051.41;;;-1.83;78.57
63535;BME280;55128;50.230;18.944;2023-12-04T00:55:51;99053.19;;;-1.79;78.81
63535;BME280;55128;50.230;18.944;2023-12-04T01:00:52;99052.91;;;-2.03;78.36
63535;BME280;55128;50.230;18.944;2023-12-04T01:05:52;99058.22;;;-1.97;78.15
63535;BME280;55128;50.230;18.944;2023-12-04T01:10:53;99062.34;;;-2.13;78.13
63535;BME280;55128;50.230;18.944;2023-12-04T01:15:53;99064.78;;;-2.27;78.03
63535;BME280;55128;50.230;18.944;2023-12-04T01:20:53;99064.81;;;-2.24;77.64
63535;BME280;55128;50.230;18.944;2023-12-04T01:25:54;99061.97;;;-2.42;77.43
63535;BME280;55128;50.230;18.944;2023-12-04T01:30:54;99068.75;;;-2.55;77.42
63535;BME280;55128;50.230;18.944;2023-12-04T01:35:55;99067.38;;;-2.89;76.34
63535;BME280;55128;50.230;18.944;2023-12-04T01:40:57;99063.06;;;-2.87;77.86
63535;BME280;55128;50.230;18.944;2023-12-04T01:45:59;99073.22;;;-3.06;76.96
63535;BME280;55128;50.230;18.944;2023-12-04T01:51:04;99069.41;;;-3.25;76.71
63535;BME280;55128;50.230;18.944;2023-12-04T01:56:07;99072.00;;;-3.77;77.73
63535;BME280;55128;50.230;18.944;2023-12-04T02:01:07;99075.13;;;-3.93;76.22
63535;BME280;55128;50.230;18.944;2023-12-04T02:06:09;99067.81;;;-4.14;76.58
63535;BME280;55128;50.230;18.944;2023-12-04T02:11:09;99067.91;;;-4.51;76.57
63535;BME280;55128;50.230;18.944;2023-12-04T02:16:12;99053.00;;;-4.62;76.59
63535;BME280;55128;50.230;18.944;2023-12-04T02:21:15;99057.84;;;-4.78;76.89
63535;BME280;55128;50.230;18.944;2023-12-04T02:26:16;99054.72;;;-5.02;76.54
63535;BME280;55128;50.230;18.944;2023-12-04T02:31:19;99051.38;;;-5.33;77.93
63535;BME280;55128;50.230;18.944;2023-12-04T02:36:23;99057.09;;;-5.12;76.64
63535;BME280;55128;50.230;18.944;2023-12-04T02:41:24;99055.25;;;-5.16;76.38
63535;BME280;55128;50.230;18.944;2023-12-04T02:46:24;99053.59;;;-5.14;76.57
63535;BME280;55128;50.230;18.944;2023-12-04T02:51:25;99059.84;;;-5.04;77.05
63535;BME280;55128;50.230;18.944;2023-12-04T02:56:26;99066.06;;;-4.97;77.87
63535;BME280;55128;50.230;18.944;2023-12-04T03:01:26;99065.66;;;-4.76;78.09
63535;BME280;55128;50.230;18.944;2023-12-04T03:06:29;99062.94;;;-4.43;77.60
63535;BME280;55128;50.230;18.944;2023-12-04T03:11:29;99058.91;;;-4.27;77.23
63535;BME280;55128;50.230;18.944;2023-12-04T03:16:30;99053.81;;;-4.24;77.43
63535;BME280;55128;50.230;18.944;2023-12-04T03:21:30;99049.19;;;-4.39;77.13
63535;BME280;55128;50.230;18.944;2023-12-04T03:26:31;99050.22;;;-4.31;77.55
63535;BME280;55128;50.230;18.944;2023-12-04T03:31:31;99055.19;;;-4.40;78.27
63535;BME280;55128;50.230;18.944;2023-12-04T03:36:31;99064.97;;;-4.26;77.92
63535;BME280;55128;50.230;18.944;2023-12-04T03:41:32;99066.63;;;-4.32;76.66
63535;BME280;55128;50.230;18.944;2023-12-04T03:46:32;99067.75;;;-4.17;77.93
63535;BME280;55128;50.230;18.944;2023-12-04T03:51:33;99079.91;;;-4.13;77.59
63535;BME280;55128;50.230;18.944;2023-12-04T03:56:33;99080.03;;;-4.08;76.91
63535;BME280;55128;50.230;18.944;2023-12-04T04:01:35;99082.50;;;-4.13;77.27
63535;BME280;55128;50.230;18.944;2023-12-04T04:06:36;99083.56;;;-4.05;77.51
63535;BME280;55128;50.230;18.944;2023-12-04T04:11:39;99090.28;;;-4.15;76.76
63535;BME280;55128;50.230;18.944;2023-12-04T04:16:40;99086.13;;;-4.06;77.16
63535;BME280;55128;50.230;18.944;2023-12-04T04:21:41;99088.22;;;-3.87;77.48
63535;BME280;55128;50.230;18.944;2023-12-04T04:26:41;99099.16;;;-4.02;77.05
63535;BME280;55128;50.230;18.944;2023-12-04T04:31:42;99089.69;;;-4.01;77.20
63535;BME280;55128;50.230;18.944;2023-12-04T04:36:42;99086.97;;;-4.06;77.03
63535;BME280;55128;50.230;18.944;2023-12-04T04:41:44;99090.25;;;-4.16;77.34
63535;BME280;55128;50.230;18.944;2023-12-04T04:46:44;99103.25;;;-4.13;77.22
63535;BME280;55128;50.230;18.944;2023-12-04T04:51:45;99095.53;;;-4.10;76.96
63535;BME280;55128;50.230;18.944;2023-12-04T04:56:45;99086.84;;;-4.14;77.00
63535;BME280;55128;50.230;18.944;2023-12-04T05:01:45;99092.69;;;-4.22;77.19
63535;BME280;55128;50.230;18.944;2023-12-04T05:06:46;99080.47;;;-4.30;76.73
63535;BME280;55128;50.230;18.944;2023-12-04T05:11:46;99081.06;;;-4.43;76.21
63535;BME280;55128;50.230;18.944;2023-12-04T05:16:47;99080.50;;;-4.68;75.61
63535;BME280;55128;50.230;18.944;2023-12-04T05:21:47;99081.63;;;-4.94;75.99
63535;BME280;55128;50.230;18.944;2023-12-04T05:26:47;99080.19;;;-5.19;76.05
63535;BME280;55128;50.230;18.944;2023-12-04T05:31:48;99076.47;;;-5.31;75.33
63535;BME280;55128;50.230;18.944;2023-12-04T05:36:48;99077.72;;;-5.50;75.61
63535;BME280;55128;50.230;18.944;2023-12-04T05:41:51;99070.56;;;-5.60;75.90
63535;BME280;55128;50.230;18.944;2023-12-04T05:46:51;99063.16;;;-5.79;75.73
63535;BME280;55128;50.230;18.944;2023-12-04T05:51:52;99058.44;;;-5.96;75.81
63535;BME280;55128;50.230;18.944;2023-12-04T05:56:52;99061.44;;;-6.12;75.64
63535;BME280;55128;50.230;18.944;2023-12-04T06:01:53;99072.91;;;-6.34;75.92
63535;BME280;55128;50.230;18.944;2023-12-04T06:06:53;99063.03;;;-6.48;75.53
63535;BME280;55128;50.230;18.944;2023-12-04T06:11:54;99066.69;;;-6.41;76.33
63535;BME280;55128;50.230;18.944;2023-12-04T06:16:54;99068.53;;;-6.66;76.31
63535;BME280;55128;50.230;18.944;2023-12-04T06:21:55;99073.97;;;-6.56;75.23
63535;BME280;55128;50.230;18.944;2023-12-04T06:26:55;99077.03;;;-6.70;76.05
63535;BME280;55128;50.230;18.944;2023-12-04T06:31:56;99069.00;;;-6.79;76.17
63535;BME280;55128;50.230;18.944;2023-12-04T06:36:57;99068.97;;;-6.80;76.74
63535;BME280;55128;50.230;18.944;2023-12-04T06:41:59;99061.69;;;-6.94;76.48
63535;BME280;55128;50.230;18.944;2023-12-04T06:47:00;99058.81;;;-6.74;76.67
63535;BME280;55128;50.230;18.944;2023-12-04T06:52:02;99068.38;;;-6.72;76.63
63535;BME280;55128;50.230;18.944;2023-12-04T06:57:03;99059.63;;;-6.47;76.11
63535;BME280;55128;50.230;18.944;2023-12-04T07:02:03;99072.69;;;-6.12;75.24
63535;BME280;55128;50.230;18.944;2023-12-04T07:07:05;99070.41;;;-5.99;74.66
63535;BME280;55128;50.230;18.944;2023-12-04T07:12:06;99056.22;;;-4.33;72.45
63535;BME280;55128;50.230;18.944;2023-12-04T07:17:06;99061.38;;;-2.20;65.90
63535;BME280;55128;50.230;18.944;2023-12-04T07:22:07;99065.91;;;1.04;73.04
63535;BME280;55128;50.230;18.944;2023-12-04T07:27:09;99074.75;;;2.89;66.82
63535;BME280;55128;50.230;18.944;2023-12-04T07:32:10;99074.97;;;2.57;55.02
63535;BME280;55128;50.230;18.944;2023-12-04T07:37:10;99078.09;;;1.03;54.67
63535;BME280;55128;50.230;18.944;2023-12-04T07:42:10;99077.50;;;-0.77;59.91
63535;BME280;55128;50.230;18.944;2023-12-04T07:47:11;99084.22;;;-1.08;62.16
63535;BME280;55128;50.230;18.944;2023-12-04T07:52:12;99082.53;;;-1.92;61.35
63535;BME280;55128;50.230;18.944;2023-12-04T07:57:12;99077.00;;;-2.18;62.91
63535;BME280;55128;50.230;18.944;2023-12-04T08:02:13;99080.09;;;-1.80;64.70
63535;BME280;55128;50.230;18.944;2023-12-04T08:07:13;99074.75;;;-1.90;65.14
63535;BME280;55128;50.230;18.944;2023-12-04T08:12:14;99068.25;;;-1.50;67.61
63535;BME280;55128;50.230;18.944;2023-12-04T08:17:14;99059.59;;;3.21;65.48
63535;BME280;55128;50.230;18.944;2023-12-04T08:22:15;99060.72;;;6.85;59.75
63535;BME280;55128;50.230;18.944;2023-12-04T08:27:15;99065.66;;;6.60;55.60
63535;BME280;55128;50.230;18.944;2023-12-04T08:32:15;99076.31;;;4.65;56.04
63535;BME280;55128;50.230;18.944;2023-12-04T08:37:16;99074.41;;;9.70;59.55
63535;BME280;55128;50.230;18.944;2023-12-04T08:42:28;99078.41;;;12.44;46.20
63535;BME280;55128;50.230;18.944;2023-12-04T08:47:47;99079.66;;;13.30;39.90
63535;BME280;55128;50.230;18.944;2023-12-04T08:52:49;99084.28;;;14.47;45.31
63535;BME280;55128;50.230;18.944;2023-12-04T08:57:49;99081.31;;;16.51;46.68
63535;BME280;55128;50.230;18.944;2023-12-04T09:02:50;99082.78;;;15.83;48.28
63535;BME280;55128;50.230;18.944;2023-12-04T09:07:51;99076.97;;;16.63;43.58
63535;BME280;55128;50.230;18.944;2023-12-04T09:12:51;99074.22;;;16.64;45.33
63535;BME280;55128;50.230;18.944;2023-12-04T09:17:53;99076.41;;;16.72;44.85
63535;BME280;55128;50.230;18.944;2023-12-04T09:22:56;99068.47;;;16.70;37.32
63535;BME280;55128;50.230;18.944;2023-12-04T09:27:57;99069.53;;;16.82;34.55
63535;BME280;55128;50.230;18.944;2023-12-04T09:32:57;99052.84;;;16.92;31.49
63535;BME280;55128;50.230;18.944;2023-12-04T09:37:58;99057.59;;;16.02;32.78
63535;BME280;55128;50.230;18.944;2023-12-04T09:42:59;99058.59;;;17.40;31.62
63535;BME280;55128;50.230;18.944;2023-12-04T09:47:59;99043.38;;;14.63;33.27
63535;BME280;55128;50.230;18.944;2023-12-04T09:53:00;99035.38;;;14.29;33.23
63535;BME280;55128;50.230;18.944;2023-12-04T09:58:02;99031.59;;;13.67;33.56
63535;BME280;55128;50.230;18.944;2023-12-04T10:03:03;99031.59;;;14.33;33.12
63535;BME280;55128;50.230;18.944;2023-12-04T10:08:04;99020.84;;;14.02;32.85
63535;BME280;55128;50.230;18.944;2023-12-04T10:24:32;99001.06;;;6.78;42.83
63535;BME280;55128;50.230;18.944;2023-12-04T10:29:44;98994.50;;;5.32;46.68
63535;BME280;55128;50.230;18.944;2023-12-04T10:34:45;98994.78;;;5.17;48.28
63535;BME280;55128;50.230;18.944;2023-12-04T10:39:50;98977.94;;;4.18;51.20
63535;BME280;55128;50.230;18.944;2023-12-04T10:50:48;98960.53;;;3.44;52.72
63535;BME280;55128;50.230;18.944;2023-12-04T10:55:51;98956.94;;;2.72;53.68
63535;BME280;55128;50.230;18.944;2023-12-04T11:00:54;98956.53;;;2.04;56.12
63535;BME280;55128;50.230;18.944;2023-12-04T11:06:00;98947.09;;;1.83;58.46
63535;BME280;55128;50.230;18.944;2023-12-04T11:11:05;98944.91;;;2.47;57.11
63535;BME280;55128;50.230;18.944;2023-12-04T11:16:20;98940.03;;;1.98;58.86
63535;BME280;55128;50.230;18.944;2023-12-04T11:21:23;98930.34;;;2.10;58.65
63535;BME280;55128;50.230;18.944;2023-12-04T11:26:25;98937.28;;;2.16;58.11
63535;BME280;55128;50.230;18.944;2023-12-04T11:31:26;98930.69;;;1.49;60.22
63535;BME280;55128;50.230;18.944;2023-12-04T11:36:27;98924.47;;;1.73;59.77
63535;BME280;55128;50.230;18.944;2023-12-04T11:41:29;98914.19;;;1.38;61.44
63535;BME280;55128;50.230;18.944;2023-12-04T11:46:34;98923.88;;;0.99;61.35
63535;BME280;55128;50.230;18.944;2023-12-04T12:02:10;98898.56;;;1.14;62.01
63535;BME280;55128;50.230;18.944;2023-12-04T12:07:11;98890.78;;;0.91;62.48
63535;BME280;55128;50.230;18.944;2023-12-04T12:12:13;98886.38;;;1.10;62.41
63535;BME280;55128;50.230;18.944;2023-12-04T12:17:14;98876.06;;;0.58;63.89
63535;BME280;55128;50.230;18.944;2023-12-04T12:22:17;98880.34;;;0.90;61.87
63535;BME280;55128;50.230;18.944;2023-12-04T12:27:17;98867.31;;;0.87;63.09
63535;BME280;55128;50.230;18.944;2023-12-04T12:32:18;98865.53;;;0.92;62.46
63535;BME280;55128;50.230;18.944;2023-12-04T12:37:18;98844.72;;;0.58;63.02
63535;BME280;55128;50.230;18.944;2023-12-04T12:42:27;98832.56;;;0.46;64.92
63535;BME280;55128;50.230;18.944;2023-12-04T12:47:31;98836.03;;;0.51;63.86
63535;BME280;55128;50.230;18.944;2023-12-04T12:52:33;98821.25;;;0.46;63.38
63535;BME280;55128;50.230;18.944;2023-12-04T12:57:34;98816.06;;;0.29;63.94
63535;BME280;55128;50.230;18.944;2023-12-04T13:02:37;98823.91;;;0.27;63.91
63535;BME280;55128;50.230;18.944;2023-12-04T13:07:37;98803.00;;;0.36;64.21
63535;BME280;55128;50.230;18.944;2023-12-04T13:12:40;98803.84;;;0.37;63.74
63535;BME280;55128;50.230;18.944;2023-12-04T13:17:41;98794.28;;;0.41;64.45
63535;BME280;55128;50.230;18.944;2023-12-04T13:22:41;98785.63;;;0.12;64.52
63535;BME280;55128;50.230;18.944;2023-12-04T13:27:41;98780.38;;;0.32;64.61
63535;BME280;55128;50.230;18.944;2023-12-04T13:32:42;98769.91;;;0.38;64.74
63535;BME280;55128;50.230;18.944;2023-12-04T13:37:43;98770.78;;;0.42;64.53
63535;BME280;55128;50.230;18.944;2023-12-04T13:42:43;98765.63;;;0.16;65.18
63535;BME280;55128;50.230;18.944;2023-12-04T13:48:02;98753.47;;;-0.11;67.36
63535;BME280;55128;50.230;18.944;2023-12-04T13:53:03;98752.59;;;-0.06;66.49
63535;BME280;55128;50.230;18.944;2023-12-04T13:58:05;98751.75;;;-0.32;66.93
63535;BME280;55128;50.230;18.944;2023-12-04T14:03:05;98746.53;;;-0.34;66.93
63535;BME280;55128;50.230;18.944;2023-12-04T14:08:07;98743.06;;;-0.33;66.68
63535;BME280;55128;50.230;18.944;2023-12-04T14:13:07;98728.28;;;-0.35;65.10
63535;BME280;55128;50.230;18.944;2023-12-04T14:18:08;98725.69;;;-0.48;67.11
63535;BME280;55128;50.230;18.944;2023-12-04T14:23:08;98716.97;;;-0.53;66.90
63535;BME280;55128;50.230;18.944;2023-12-04T14:28:09;98715.25;;;-0.59;66.65
63535;BME280;55128;50.230;18.944;2023-12-04T14:33:09;98707.44;;;-0.86;68.12
63535;BME280;55128;50.230;18.944;2023-12-04T14:38:10;98703.94;;;-0.79;68.56
63535;BME280;55128;50.230;18.944;2023-12-04T14:43:10;98707.38;;;-1.12;69.63
63535;BME280;55128;50.230;18.944;2023-12-04T14:48:12;98696.09;;;-1.18;70.44
63535;BME280;55128;50.230;18.944;2023-12-04T14:53:12;98709.94;;;-1.28;70.89
63535;BME280;55128;50.230;18.944;2023-12-04T14:58:17;98703.88;;;-1.24;70.52
63535;BME280;55128;50.230;18.944;2023-12-04T15:03:23;98700.38;;;-1.24;70.87
63535;BME280;55128;50.230;18.944;2023-12-04T15:08:24;98691.72;;;-1.22;70.27
63535;BME280;55128;50.230;18.944;2023-12-04T15:13:25;98695.22;;;-1.15;69.90
63535;BME280;55128;50.230;18.944;2023-12-04T15:18:43;98694.25;;;-1.43;70.46
63535;BME280;55128;50.230;18.944;2023-12-04T15:23:53;98682.06;;;-1.58;71.32
63535;BME280;55128;50.230;18.944;2023-12-04T15:28:54;98678.59;;;-1.54;71.45
63535;BME280;55128;50.230;18.944;2023-12-04T15:33:54;98676.00;;;-1.60;71.88
63535;BME280;55128;50.230;18.944;2023-12-04T15:38:55;98683.75;;;-1.71;72.28
63535;BME280;55128;50.230;18.944;2023-12-04T15:43:55;98670.78;;;-1.65;71.61
63535;BME280;55128;50.230;18.944;2023-12-04T15:48:56;98675.94;;;-1.80;72.57
63535;BME280;55128;50.230;18.944;2023-12-04T15:53:57;98670.75;;;-1.68;72.70
63535;BME280;55128;50.230;18.944;2023-12-04T15:58:57;98674.28;;;-1.55;72.43
63535;BME280;55128;50.230;18.944;2023-12-04T16:03:58;98669.13;;;-1.38;71.70
63535;BME280;55128;50.230;18.944;2023-12-04T16:08:58;98652.59;;;-1.49;71.85
63535;BME280;55128;50.230;18.944;2023-12-04T16:13:59;98663.00;;;-1.55;72.33
63535;BME280;55128;50.230;18.944;2023-12-04T16:18:59;98664.78;;;-1.41;71.89
63535;BME280;55128;50.230;18.944;2023-12-04T16:23:59;98661.31;;;-1.40;71.42
63535;BME280;55128;50.230;18.944;2023-12-04T16:29:03;98648.25;;;-1.53;71.48
63535;BME280;55128;50.230;18.944;2023-12-04T16:34:03;98644.78;;;-1.54;71.52
63535;BME280;55128;50.230;18.944;2023-12-04T16:39:04;98637.00;;;-1.49;71.16
63535;BME280;55128;50.230;18.944;2023-12-04T16:44:04;98634.38;;;-1.52;70.31
63535;BME280;55128;50.230;18.944;2023-12-04T16:49:06;98625.72;;;-1.51;70.89
63535;BME280;55128;50.230;18.944;2023-12-04T16:54:08;98615.31;;;-1.39;70.03
63535;BME280;55128;50.230;18.944;2023-12-04T16:59:08;98614.38;;;-1.64;70.89
63535;BME280;55128;50.230;18.944;2023-12-04T17:04:09;98618.72;;;-1.62;70.67
63535;BME280;55128;50.230;18.944;2023-12-04T17:09:09;98615.28;;;-1.51;70.54
63535;BME280;55128;50.230;18.944;2023-12-04T17:14:15;98608.28;;;-1.71;70.72
63535;BME280;55128;50.230;18.944;2023-12-04T17:19:15;98615.25;;;-1.65;70.87
63535;BME280;55128;50.230;18.944;2023-12-04T17:24:15;98610.06;;;-1.48;70.85
63535;BME280;55128;50.230;18.944;2023-12-04T17:29:16;98611.81;;;-1.50;70.55
63535;BME280;55128;50.230;18.944;2023-12-04T17:34:17;98600.56;;;-1.37;70.67
63535;BME280;55128;50.230;18.944;2023-12-04T17:39:17;98591.88;;;-1.45;70.51
63535;BME280;55128;50.230;18.944;2023-12-04T17:44:18;98602.22;;;-1.71;70.95
63535;BME280;55128;50.230;18.944;2023-12-04T17:49:20;98588.38;;;-1.58;70.60
63535;BME280;55128;50.230;18.944;2023-12-04T17:54:20;98581.44;;;-1.56;70.77
63535;BME280;55128;50.230;18.944;2023-12-04T17:59:21;98581.41;;;-1.70;71.66
63535;BME280;55128;50.230;18.944;2023-12-04T18:04:22;98577.94;;;-1.67;71.31
63535;BME280;55128;50.230;18.944;2023-12-04T18:09:23;98571.88;;;-1.62;71.03
63535;BME280;55128;50.230;18.944;2023-12-04T18:14:23;98580.59;;;-1.61;71.21
63535;BME280;55128;50.230;18.944;2023-12-04T18:19:24;98574.50;;;-1.63;71.75
63535;BME280;55128;50.230;18.944;2023-12-04T18:24:25;98564.06;;;-1.62;71.63
63535;BME280;55128;50.230;18.944;2023-12-04T18:29:26;98568.41;;;-1.70;71.51
63535;BME280;55128;50.230;18.944;2023-12-04T18:34:26;98570.13;;;-1.86;72.22
63535;BME280;55128;50.230;18.944;2023-12-04T18:39:27;98568.41;;;-1.76;72.00
63535;BME280;55128;50.230;18.944;2023-12-04T18:44:30;98561.34;;;-2.05;72.61
63535;BME280;55128;50.230;18.944;2023-12-04T18:49:31;98557.03;;;-2.06;73.48
63535;BME280;55128;50.230;18.944;2023-12-04T18:54:35;98545.78;;;-2.08;73.86
63535;BME280;55128;50.230;18.944;2023-12-04T18:59:37;98531.94;;;-1.94;73.30
63535;BME280;55128;50.230;18.944;2023-12-04T19:04:37;98539.72;;;-1.99;73.33
63535;BME280;55128;50.230;18.944;2023-12-04T19:09:38;98538.88;;;-1.97;72.95
63535;BME280;55128;50.230;18.944;2023-12-04T19:14:38;98532.75;;;-2.05;73.43
63535;BME280;55128;50.230;18.944;2023-12-04T19:19:39;98531.91;;;-2.02;73.64
63535;BME280;55128;50.230;18.944;2023-12-04T19:24:40;98530.13;;;-2.14;73.95
63535;BME280;55128;50.230;18.944;2023-12-04T19:29:40;98525.78;;;-2.21;74.24
63535;BME280;55128;50.230;18.944;2023-12-04T19:34:44;98518.03;;;-2.04;74.26
63535;BME280;55128;50.230;18.944;2023-12-04T19:39:44;98511.94;;;-2.09;74.05
63535;BME280;55128;50.230;18.944;2023-12-04T19:44:45;98507.63;;;-2.00;74.21
63535;BME280;55128;50.230;18.944;2023-12-04T19:49:45;98491.13;;;-2.25;74.91
63535;BME280;55128;50.230;18.944;2023-12-04T19:54:46;98508.47;;;-2.19;74.63
63535;BME280;55128;50.230;18.944;2023-12-04T19:59:48;98508.41;;;-2.35;75.15
63535;BME280;55128;50.230;18.944;2023-12-04T20:04:48;98497.13;;;-2.41;75.36
63535;BME280;55128;50.230;18.944;2023-12-04T20:09:48;98502.38;;;-2.24;74.69
63535;BME280;55128;50.230;18.944;2023-12-04T20:14:49;98500.63;;;-2.31;75.16
63535;BME280;55128;50.230;18.944;2023-12-04T20:19:49;98496.28;;;-2.29;74.96
63535;BME280;55128;50.230;18.944;2023-12-04T20:24:50;98495.47;;;-2.11;74.17
63535;BME280;55128;50.230;18.944;2023-12-04T20:29:50;98498.88;;;-2.29;75.28
63535;BME280;55128;50.230;18.944;2023-12-04T20:34:51;98492.03;;;-2.07;74.72
63535;BME280;55128;50.230;18.944;2023-12-04T20:39:52;98492.03;;;-2.12;74.96
63535;BME280;55128;50.230;18.944;2023-12-04T20:44:52;98486.78;;;-2.17;74.85
63535;BME280;55128;50.230;18.944;2023-12-04T20:49:53;98487.69;;;-2.04;74.80
63535;BME280;55128;50.230;18.944;2023-12-04T20:54:53;98484.19;;;-2.10;74.48
63535;BME280;55128;50.230;18.944;2023-12-04T20:59:56;98474.72;;;-1.91;73.51
63535;BME280;55128;50.230;18.944;2023-12-04T21:04:56;98470.31;;;-2.32;75.18
63535;BME280;55128;50.230;18.944;2023-12-04T21:09:57;98473.81;;;-2.09;74.78
63535;BME280;55128;50.230;18.944;2023-12-04T21:14:57;98476.44;;;-2.12;74.98
63535;BME280;55128;50.230;18.944;2023-12-04T21:20:03;98457.34;;;-1.96;73.37
63535;BME280;55128;50.230;18.944;2023-12-04T21:25:04;98454.72;;;-2.17;74.39
63535;BME280;55128;50.230;18.944;2023-12-04T21:30:06;98437.41;;;-2.12;73.79
63535;BME280;55128;50.230;18.944;2023-12-04T21:35:07;98431.34;;;-2.02;73.63
63535;BME280;55128;50.230;18.944;2023-12-04T21:40:08;98417.47;;;-2.15;75.33
63535;BME280;55128;50.230;18.944;2023-12-04T21:45:09;98395.81;;;-1.97;73.95
63535;BME280;55128;50.230;18.944;2023-12-04T21:50:09;98405.31;;;-2.14;75.01
63535;BME280;55128;50.230;18.944;2023-12-04T21:55:10;98400.16;;;-2.02;74.67
63535;BME280;55128;50.230;18.944;2023-12-04T22:00:12;98396.69;;;-1.88;73.35
63535;BME280;55128;50.230;18.944;2023-12-04T22:05:13;98388.03;;;-1.86;73.41
63535;BME280;55128;50.230;18.944;2023-12-04T22:10:13;98394.94;;;-1.96;73.11
63535;BME280;55128;50.230;18.944;2023-12-04T22:15:14;98392.38;;;-1.97;73.81
63535;BME280;55128;50.230;18.944;2023-12-04T22:20:14;98397.53;;;-2.09;74.12
63535;BME280;55128;50.230;18.944;2023-12-04T22:25:15;98363.72;;;-2.11;74.52
63535;BME280;55128;50.230;18.944;2023-12-04T22:30:15;98368.06;;;-2.15;74.25
63535;BME280;55128;50.230;18.944;2023-12-04T22:35:16;98367.22;;;-2.13;74.32
63535;BME280;55128;50.230;18.944;2023-12-04T22:40:16;98370.66;;;-2.35;75.00
63535;BME280;55128;50.230;18.944;2023-12-04T22:45:17;98359.41;;;-2.15;74.79
63535;BME280;55128;50.230;18.944;2023-12-04T22:50:17;98345.56;;;-2.06;74.18
63535;BME280;55128;50.230;18.944;2023-12-04T22:55:18;98359.41;;;-2.13;74.98
63535;BME280;55128;50.230;18.944;2023-12-04T23:00:18;98342.06;;;-2.13;74.73
63535;BME280;55128;50.230;18.944;2023-12-04T23:05:20;98333.41;;;-2.13;74.43
63535;BME280;55128;50.230;18.944;2023-12-04T23:10:20;98339.47;;;-2.07;73.89
63535;BME280;55128;50.230;18.944;2023-12-04T23:15:24;98332.53;;;-2.17;74.25
63535;BME280;55128;50.230;18.944;2023-12-04T23:20:27;98333.41;;;-2.15;74.21
63535;BME280;55128;50.230;18.944;2023-12-04T23:25:29;98327.34;;;-2.20;74.12
63535;BME280;55128;50.230;18.944;2023-12-04T23:30:30;98317.81;;;-2.06;74.34
63535;BME280;55128;50.230;18.944;2023-12-04T23:35:30;98316.06;;;-2.05;73.93
63535;BME280;55128;50.230;18.944;2023-12-04T23:40:31;98314.34;;;-2.08;73.46
63535;BME280;55128;50.230;18.944;2023-12-04T23:45:31;98303.03;;;-1.88;73.06
63535;BME280;55128;50.230;18.944;2023-12-04T23:50:32;98291.78;;;-2.10;73.30
63535;BME280;55128;50.230;18.944;2023-12-04T23:55:33;98286.59;;;-2.26;74.02
